Time;durP1;ratioP1;P1;durP2;ratioP2;P2;SDS_P1;SDS_P2;PMS_P1;PMS_P2;Temp;Humidity;BMP_temperature;BMP_pressure;BME280_temperature;BME280_humidity;BME280_pressure;Samples;Min_cycle;Max_cycle;Signal;HPM_P1;HPM_P2
2022/04/27 00:02:16;;;;;;;7.30;2.80;;;;;;;19.32;69.06;99892.96;1701575;82;21537;-58
2022/04/27 00:04:43;;;;;;;7.73;3.00;;;;;;;19.32;69.06;99892.96;1694944;82;21430;-58
2022/04/27 00:07:11;;;;;;;9.30;2.93;;;;;;;19.26;70.40;99893.97;1692693;84;21396;-57
2022/04/27 00:09:38;;;;;;;7.83;2.73;;;;;;;19.26;70.40;99893.97;1692922;82;21410;-58
2022/04/27 00:12:06;;;;;;;7.03;3.27;;;;;;;19.22;70.27;99898.95;1692406;83;21408;-57
2022/04/27 00:14:35;;;;;;;5.67;2.30;;;;;;;19.37;69.48;99907.56;1693195;82;21881;-58
2022/04/27 00:17:03;;;;;;;6.13;2.50;;;;;;;19.30;69.92;99907.76;1693144;83;21361;-58
2022/04/27 00:19:30;;;;;;;5.17;2.53;;;;;;;19.18;71.74;99905.26;1693129;83;21820;-64
2022/04/27 00:21:59;;;;;;;7.50;2.33;;;;;;;19.25;71.00;99901.64;1692249;84;21363;-58
2022/04/27 00:24:28;;;;;;;8.03;3.27;;;;;;;19.38;70.24;99906.52;1692908;82;21417;-57
2022/04/27 00:26:56;;;;;;;6.43;2.73;;;;;;;19.23;70.20;99905.83;1693215;84;21303;-59
2022/04/27 00:29:25;;;;;;;5.70;2.50;;;;;;;19.29;69.86;99900.09;1693300;84;21315;-57
2022/04/27 00:31:53;;;;;;;5.40;2.77;;;;;;;19.29;69.86;99900.09;1692541;83;21398;-62
2022/04/27 00:34:20;;;;;;;8.40;2.83;;;;;;;19.03;72.80;99907.73;1693302;83;21414;-58
2022/04/27 00:36:48;;;;;;;7.67;3.40;;;;;;;19.03;72.80;99907.73;1693192;83;21320;-56
2022/04/27 00:39:18;;;;;;;6.97;3.47;;;;;;;19.01;72.75;99906.38;1693172;84;21372;-58
2022/04/27 00:42:00;;;;;;;9.33;3.80;;;;;;;19.03;71.78;99906.41;1692842;84;21301;-65
2022/04/27 00:44:32;;;;;;;8.83;3.20;;;;;;;18.99;72.63;99904.52;1693512;84;21406;-57
2022/04/27 00:47:00;;;;;;;6.90;3.23;;;;;;;18.73;74.20;99906.05;1693612;84;21276;-57
2022/04/27 00:49:29;;;;;;;5.67;3.00;;;;;;;18.62;75.98;99907.73;1692738;82;21382;-65
2022/04/27 00:51:57;;;;;;;8.47;3.07;;;;;;;18.77;74.42;99908.48;1693288;82;21758;-58
2022/04/27 00:54:25;;;;;;;8.70;2.97;;;;;;;18.65;75.57;99913.84;1693522;84;21372;-57
2022/04/27 00:56:54;;;;;;;10.10;3.27;;;;;;;18.65;76.11;99918.59;1693619;84;21111;-58
2022/04/27 00:59:23;;;;;;;10.07;2.90;;;;;;;18.70;76.31;99919.18;1693351;83;22527;-59
2022/04/27 01:01:50;;;;;;;5.63;2.20;;;;;;;18.73;76.09;99920.05;1692721;84;21059;-57
2022/04/27 01:04:19;;;;;;;6.83;2.53;;;;;;;18.81;74.83;99918.83;1687668;83;21992;-57
2022/04/27 01:06:47;;;;;;;10.93;2.50;;;;;;;18.64;76.10;99926.25;1681225;85;21597;-59
2022/04/27 01:09:15;;;;;;;6.37;2.57;;;;;;;18.56;77.98;99926.67;1679509;83;21237;-57
2022/04/27 01:11:45;;;;;;;10.87;7.97;;;;;;;18.53;78.86;99930.31;1672153;85;21128;-64
2022/04/27 01:14:13;;;;;;;11.40;10.23;;;;;;;18.58;78.54;99915.34;1680841;85;21870;-60
2022/04/27 01:16:40;;;;;;;12.13;8.63;;;;;;;18.51;79.90;99921.83;1681203;84;21240;-58
2022/04/27 01:19:07;;;;;;;10.07;7.17;;;;;;;18.37;81.93;99928.78;1680935;83;21292;-58
2022/04/27 01:21:35;;;;;;;13.77;7.53;;;;;;;18.36;82.55;99930.33;1681258;83;21348;-58
2022/04/27 01:24:06;;;;;;;9.53;7.40;;;;;;;18.20;84.98;99921.39;1680041;83;21646;-60
2022/04/27 01:26:34;;;;;;;10.30;5.87;;;;;;;18.15;84.63;99922.65;1670744;85;21625;-60
2022/04/27 01:29:01;;;;;;;10.43;5.27;;;;;;;18.23;83.61;99930.95;1681121;85;21412;-58
2022/04/27 01:31:29;;;;;;;8.40;4.03;;;;;;;18.37;82.47;99920.05;1681052;83;21117;-57
2022/04/27 01:33:56;;;;;;;6.27;2.97;;;;;;;18.38;80.62;99929.58;1680956;83;21338;-66
2022/04/27 01:36:24;;;;;;;8.73;3.03;;;;;;;18.23;82.03;99930.95;1680838;83;22094;-58
2022/04/27 01:38:53;;;;;;;7.07;2.73;;;;;;;18.27;82.67;99931.80;1681606;83;21224;-57
2022/04/27 01:41:21;;;;;;;6.87;3.13;;;;;;;18.28;83.18;99932.06;1681471;84;21398;-57
2022/04/27 01:43:48;;;;;;;6.67;2.90;;;;;;;18.34;82.23;99931.11;1681720;83;21705;-58
2022/04/27 01:46:16;;;;;;;5.20;2.90;;;;;;;18.34;80.99;99929.79;1680205;85;21419;-59
2022/04/27 01:48:43;;;;;;;6.10;2.57;;;;;;;18.31;81.15;99921.03;1681594;85;21723;-57
2022/04/27 01:51:11;;;;;;;13.10;4.87;;;;;;;18.33;81.21;99918.41;1681390;85;21320;-57
2022/04/27 01:56:24;;;;;;;9.97;6.60;;;;;;;18.24;83.52;99916.70;1681076;84;21674;-57
2022/04/27 01:58:54;;;;;;;11.03;7.57;;;;;;;18.07;85.40;99921.22;1680942;85;21292;-57
2022/04/27 02:01:25;;;;;;;14.50;8.13;;;;;;;18.12;84.83;99918.64;1680675;83;21320;-56
2022/04/27 02:03:54;;;;;;;13.37;8.37;;;;;;;17.99;85.63;99922.91;1680427;83;21320;-58
2022/04/27 02:06:23;;;;;;;12.27;7.83;;;;;;;18.57;80.90;99930.91;1680646;85;21304;-57
2022/04/27 02:08:51;;;;;;;8.83;5.63;;;;;;;18.95;74.42;99939.34;1680574;83;21219;-56
2022/04/27 02:11:25;;;;;;;8.17;3.80;;;;;;;18.10;82.08;99936.53;1680282;84;21303;-58
2022/04/27 02:14:04;;;;;;;11.33;3.20;;;;;;;18.12;84.90;99931.83;1680012;83;21386;-62
2022/04/27 02:16:33;;;;;;;6.17;3.20;;;;;;;18.09;86.86;99925.72;1644918;85;21401;-59
2022/04/27 02:19:02;;;;;;;6.00;2.70;;;;;;;18.09;87.23;99931.52;1680889;85;21740;-55
2022/04/27 02:21:31;;;;;;;5.80;2.80;;;;;;;18.05;88.59;99932.52;1680077;83;21167;-58
2022/04/27 02:24:00;;;;;;;6.93;3.53;;;;;;;18.20;86.58;99935.91;1680387;85;21308;-59
2022/04/27 02:26:28;;;;;;;8.63;3.87;;;;;;;18.10;88.28;99927.83;1680813;85;21704;-55
2022/04/27 02:28:57;;;;;;;7.60;3.40;;;;;;;18.19;87.00;99927.72;1680531;83;21924;-56
2022/04/27 02:31:24;;;;;;;10.27;4.93;;;;;;;18.20;83.78;99930.11;1680632;83;21349;-59
2022/04/27 02:33:52;;;;;;;8.97;3.87;;;;;;;18.10;83.60;99933.90;1680316;83;21800;-56
2022/04/27 02:36:19;;;;;;;6.13;3.40;;;;;;;17.96;85.48;99939.23;1680589;83;21786;-62
2022/04/27 02:38:48;;;;;;;7.07;3.57;;;;;;;17.90;86.39;99938.86;1655080;83;22279;-56
2022/04/27 02:41:18;;;;;;;6.07;3.33;;;;;;;18.13;83.59;99941.86;1680806;85;21926;-65
2022/04/27 02:43:45;;;;;;;8.23;4.00;;;;;;;18.39;80.11;99947.00;1680111;84;21344;-58
2022/04/27 02:46:14;;;;;;;5.00;3.00;;;;;;;18.44;79.52;99949.70;1680662;83;21280;-66
2022/04/27 02:51:48;;;;;;;7.13;2.97;;;;;;;18.30;83.49;99960.34;1680390;85;21346;-58
2022/04/27 02:53:56;;;;;;;7.80;3.87;;;;;;;18.67;84.97;99962.70;1680191;85;22827;-58
2022/04/27 02:56:23;;;;;;;9.40;3.63;;;;;;;19.18;79.93;99968.67;1680134;83;22457;-57
2022/04/27 02:58:52;;;;;;;6.50;2.80;;;;;;;19.44;77.02;99971.61;1680860;85;21198;-57
2022/04/27 03:01:19;;;;;;;7.90;3.17;;;;;;;19.93;71.98;99977.67;1680190;83;21660;-58
2022/04/27 03:03:47;;;;;;;10.63;3.53;;;;;;;20.26;67.18;99978.44;1680797;85;21748;-59
2022/04/27 03:06:15;;;;;;;8.17;3.23;;;;;;;20.36;65.83;99984.34;1683703;83;21338;-64
2022/04/27 03:08:45;;;;;;;9.90;3.97;;;;;;;20.29;64.80;99981.13;1711269;82;21680;-56
2022/04/27 03:11:12;;;;;;;8.17;3.57;;;;;;;20.51;62.27;99988.45;1711854;82;21695;-58
2022/04/27 03:13:41;;;;;;;5.30;2.60;;;;;;;20.54;61.72;99986.63;1706568;83;21770;-58
2022/04/27 03:16:11;;;;;;;10.53;3.00;;;;;;;20.54;61.72;99986.63;1711378;83;22224;-57
2022/04/27 03:18:39;;;;;;;8.30;3.00;;;;;;;20.81;60.54;99985.72;1711346;83;20983;-56
2022/04/27 03:21:06;;;;;;;9.47;2.50;;;;;;;21.16;59.75;99986.94;1711207;82;23230;-59
2022/04/27 03:23:35;;;;;;;7.20;2.87;;;;;;;21.86;57.70;99985.55;1711292;82;21587;-59
2022/04/27 03:26:05;;;;;;;5.97;2.43;;;;;;;22.47;54.68;99982.91;1711746;82;21085;-58
2022/04/27 03:28:32;;;;;;;5.07;2.73;;;;;;;23.32;51.68;99992.74;1700327;82;21282;-58
2022/04/27 03:31:00;;;;;;;7.80;2.73;;;;;;;24.23;49.51;99998.54;1711400;82;21075;-57
2022/04/27 03:33:30;;;;;;;5.67;2.57;;;;;;;25.13;46.91;99989.92;1710165;82;21599;-58
2022/04/27 03:35:58;;;;;;;4.40;2.10;;;;;;;26.09;44.19;99992.28;1711566;82;20998;-58
2022/04/27 03:38:29;;;;;;;5.05;2.17;;;;;;;26.97;41.73;99997.64;1710788;82;21051;-58
2022/04/27 03:40:57;;;;;;;5.83;2.30;;;;;;;27.69;40.04;99990.23;1712239;82;21294;-58
2022/04/27 03:43:25;;;;;;;5.00;2.33;;;;;;;28.27;38.78;99994.75;1711538;82;21054;-58
2022/04/27 03:45:53;;;;;;;6.13;2.47;;;;;;;29.01;37.36;99998.15;1711819;82;21065;-56
2022/04/27 03:48:22;;;;;;;6.80;2.57;;;;;;;29.81;35.87;99993.87;1710908;82;21074;-60
2022/04/27 03:50:51;;;;;;;6.20;2.53;;;;;;;30.56;34.55;99993.56;1685699;83;21126;-57
2022/04/27 03:53:19;;;;;;;6.00;2.93;;;;;;;31.46;33.26;99994.57;1711425;82;21151;-64
2022/04/27 03:55:48;;;;;;;4.57;2.50;;;;;;;32.12;31.55;99993.24;1711737;83;21359;-56
2022/04/27 03:58:15;;;;;;;7.45;2.83;;;;;;;32.77;30.43;99992.64;1711100;83;21090;-61
2022/04/27 04:00:44;;;;;;;5.50;2.92;;;;;;;33.12;29.73;99997.82;1711794;82;22145;-56
2022/04/27 04:03:13;;;;;;;4.05;2.60;;;;;;;33.57;28.99;100000.09;1710776;82;21105;-60
2022/04/27 04:05:41;;;;;;;6.08;3.12;;;;;;;33.81;28.11;100005.38;1705221;82;21236;-55
2022/04/27 04:08:09;;;;;;;5.65;3.42;;;;;;;33.75;27.75;100014.08;1701178;82;21018;-58
2022/04/27 04:10:36;;;;;;;5.83;3.35;;;;;;;33.58;27.54;100013.25;1701639;82;21114;-56
2022/04/27 04:13:05;;;;;;;5.95;3.80;;;;;;;33.33;27.61;100012.50;1701859;82;21070;-57
2022/04/27 04:15:39;;;;;;;5.85;3.30;;;;;;;33.20;27.83;100018.30;1692434;82;21629;-57
2022/04/27 04:18:26;;;;;;;6.55;3.58;;;;;;;33.55;27.87;100017.98;1701461;82;21173;-55
2022/04/27 04:20:58;;;;;;;5.42;3.00;;;;;;;33.96;27.23;100022.77;1679514;82;22277;-62
2022/04/27 04:23:31;;;;;;;5.00;2.52;;;;;;;34.48;26.74;100027.22;1689406;82;21364;-67
2022/04/27 04:28:55;;;;;;;5.20;3.08;;;;;;;34.76;26.11;100029.05;1701566;82;21166;-57
2022/04/27 04:31:24;;;;;;;4.15;2.67;;;;;;;34.63;26.26;100031.09;1702051;82;21930;-55
2022/04/27 04:33:57;;;;;;;5.50;3.42;;;;;;;34.73;26.18;100029.75;1700401;82;20964;-56
2022/04/27 04:36:24;;;;;;;6.60;2.95;;;;;;;34.82;26.00;100039.84;1702056;82;21073;-57
2022/04/27 04:38:52;;;;;;;7.00;3.15;;;;;;;34.84;26.01;100042.97;1701760;82;21046;-60
2022/04/27 04:41:22;;;;;;;6.75;3.50;;;;;;;34.87;26.14;100049.05;1701979;82;21003;-58
2022/04/27 04:43:54;;;;;;;6.75;3.20;;;;;;;35.16;25.92;100041.03;1700999;83;21162;-57
2022/04/27 04:46:23;;;;;;;6.20;3.20;;;;;;;35.51;25.68;100049.14;1701978;82;21003;-58
2022/04/27 04:48:56;;;;;;;6.08;2.83;;;;;;;35.91;25.19;100045.25;1652020;84;21356;-57
2022/04/27 04:51:45;;;;;;;5.87;3.25;;;;;;;36.18;24.80;100049.45;1702245;82;21529;-57
2022/04/27 04:54:27;;;;;;;5.53;2.58;;;;;;;36.51;24.63;100045.58;1701503;84;21096;-58
2022/04/27 04:56:57;;;;;;;4.65;2.83;;;;;;;37.05;24.08;100051.84;1701813;82;21645;-58
2022/04/27 04:59:44;;;;;;;3.90;2.37;;;;;;;37.51;23.71;100050.36;1701499;82;21074;-62
2022/04/27 05:02:31;;;;;;;4.60;2.50;;;;;;;38.05;23.20;100058.55;1654401;85;20949;-57
2022/04/27 05:05:10;;;;;;;4.85;2.25;;;;;;;38.82;22.31;100054.16;1632559;86;21363;-65
2022/04/27 05:07:57;;;;;;;4.55;3.27;;;;;;;38.98;22.03;100060.69;1706764;82;21008;-62
2022/04/27 05:10:26;;;;;;;4.93;2.87;;;;;;;39.05;21.96;100061.31;1702619;82;21518;-57
2022/04/27 05:13:13;;;;;;;4.85;2.95;;;;;;;39.14;21.79;100068.58;1670799;85;21623;-56
2022/04/27 05:15:51;;;;;;;5.72;2.35;;;;;;;39.08;21.68;100074.96;1670469;85;21103;-58
2022/04/27 05:18:21;;;;;;;3.90;2.45;;;;;;;39.09;21.80;100077.87;1686490;83;21130;-59
2022/04/27 05:20:54;;;;;;;5.65;2.70;;;;;;;39.18;21.58;100071.52;1707264;83;21101;-60
2022/04/27 05:23:24;;;;;;;5.70;2.67;;;;;;;39.35;21.46;100072.79;1704881;82;21269;-58
2022/04/27 05:25:57;;;;;;;6.05;2.87;;;;;;;39.54;21.29;100074.42;1697381;83;21070;-58
2022/04/27 05:31:54;;;;;;;7.00;3.22;;;;;;;39.75;20.95;100073.76;1671027;83;21094;-57
2022/04/27 05:33:52;;;;;;;5.12;2.15;;;;;;;39.96;20.71;100078.47;1689564;83;20900;-62
2022/04/27 05:36:22;;;;;;;5.10;2.05;;;;;;;40.03;20.16;100080.44;1704666;82;21894;-57
2022/04/27 05:38:54;;;;;;;4.05;2.00;;;;;;;39.87;20.13;100085.67;1706321;83;21016;-56
2022/04/27 05:41:25;;;;;;;4.08;1.98;;;;;;;40.04;20.04;100083.36;1704867;82;20986;-56
2022/04/27 05:43:54;;;;;;;3.90;1.87;;;;;;;40.41;19.67;100079.53;1705323;82;21523;-56
2022/04/27 05:46:39;;;;;;;3.35;1.37;;;;;;;40.46;19.51;100085.41;1670344;85;21129;-56
2022/04/27 05:49:18;;;;;;;2.95;1.62;;;;;;;40.74;19.01;100081.89;1695913;82;21166;-64
2022/04/27 05:51:53;;;;;;;3.22;1.40;;;;;;;40.95;18.68;100087.89;1689044;82;21073;-55
2022/04/27 05:54:22;;;;;;;2.93;1.50;;;;;;;40.56;18.41;100087.95;1705382;82;21051;-56
2022/04/27 05:56:53;;;;;;;3.40;1.62;;;;;;;40.07;18.98;100094.29;1706797;82;21552;-58
2022/04/27 05:59:34;;;;;;;3.12;1.40;;;;;;;40.01;18.92;100096.45;1682576;82;21122;-56
2022/04/27 06:02:11;;;;;;;2.37;1.42;;;;;;;40.00;18.90;100097.59;1705548;82;20936;-56
2022/04/27 06:04:38;;;;;;;3.47;1.65;;;;;;;39.91;18.79;100101.28;1707027;82;21070;-63
2022/04/27 06:07:07;;;;;;;2.95;1.52;;;;;;;39.67;18.98;100108.98;1701607;83;21078;-57
2022/04/27 06:09:37;;;;;;;2.85;1.37;;;;;;;39.35;19.10;100101.42;1702520;84;21394;-57
2022/04/27 06:12:09;;;;;;;3.08;1.50;;;;;;;38.86;19.46;100112.78;1702092;82;21107;-57
2022/04/27 06:14:39;;;;;;;3.75;2.08;;;;;;;38.56;19.83;100112.90;1701880;82;21822;-63
2022/04/27 06:17:09;;;;;;;2.15;1.52;;;;;;;38.56;19.96;100119.13;1701452;82;21074;-57
2022/04/27 06:19:38;;;;;;;2.25;1.40;;;;;;;38.50;19.91;100111.70;1702707;84;21544;-56
2022/04/27 06:22:08;;;;;;;5.47;1.22;;;;;;;38.48;20.11;100120.22;1702063;82;21119;-56
2022/04/27 06:24:36;;;;;;;3.20;1.40;;;;;;;38.81;20.05;100118.59;1702596;82;21103;-56
2022/04/27 06:27:09;;;;;;;2.27;1.17;;;;;;;38.91;19.73;100122.77;1671613;84;22474;-57
2022/04/27 06:29:36;;;;;;;2.10;1.27;;;;;;;39.02;19.58;100128.30;1702468;84;21134;-57
2022/04/27 06:32:05;;;;;;;2.58;1.37;;;;;;;38.96;19.50;100133.11;1702002;82;20983;-56
2022/04/27 06:34:33;;;;;;;2.58;1.72;;;;;;;38.99;19.17;100133.13;1691312;84;21564;-64
2022/04/27 06:37:01;;;;;;;2.60;1.45;;;;;;;38.87;19.41;100128.77;1706216;82;21122;-62
2022/04/27 06:39:30;;;;;;;2.10;1.20;;;;;;;38.78;19.39;100130.98;1699910;82;21358;-56
2022/04/27 06:41:59;;;;;;;2.25;1.30;;;;;;;38.79;19.67;100139.94;1701780;82;21070;-58
2022/04/27 06:44:35;;;;;;;2.12;1.20;;;;;;;38.78;19.28;100134.30;1701446;82;21022;-62
2022/04/27 06:47:22;;;;;;;2.45;1.32;;;;;;;38.63;19.27;100127.36;1618329;88;21136;-58
2022/04/27 06:50:08;;;;;;;1.92;1.00;;;;;;;38.76;19.38;100131.19;1591495;88;21099;-64
2022/04/27 06:52:43;;;;;;;3.22;1.25;;;;;;;38.87;19.41;100134.22;1644141;82;21335;-56
2022/04/27 06:55:30;;;;;;;2.85;1.22;;;;;;;39.00;18.87;100133.91;1701391;82;21023;-56
2022/04/27 06:58:15;;;;;;;1.95;0.93;;;;;;;38.91;18.85;100147.88;1701678;84;21435;-62
2022/04/27 07:00:45;;;;;;;2.70;1.10;;;;;;;38.85;19.20;100135.16;1702133;82;21915;-56
2022/04/27 07:03:12;;;;;;;3.05;0.93;;;;;;;38.95;18.69;100144.59;1702229;82;21026;-56
2022/04/27 07:05:42;;;;;;;;;;;;;;;39.06;18.57;100140.00;1704148;82;21121;-57
2022/04/27 07:08:09;;;;;;;1.40;0.80;;;;;;;38.94;18.58;100144.36;1701060;82;20144;-57
2022/04/27 07:10:37;;;;;;;2.17;1.45;;;;;;;38.74;18.74;100146.53;1701842;82;21146;-56
2022/04/27 07:13:06;;;;;;;2.50;1.50;;;;;;;38.77;18.73;100145.78;1701696;82;21106;-56
2022/04/27 07:15:34;;;;;;;1.90;1.32;;;;;;;38.76;18.73;100151.03;1702288;82;21536;-56
2022/04/27 07:18:02;;;;;;;2.72;1.52;;;;;;;38.73;19.04;100149.64;1701672;82;21099;-56
2022/04/27 07:20:29;;;;;;;3.20;1.50;;;;;;;38.69;19.21;100143.58;1700547;82;21145;-56
2022/04/27 07:22:57;;;;;;;2.35;1.25;;;;;;;38.58;18.93;100147.37;1702369;82;21436;-55
2022/04/27 07:25:24;;;;;;;2.40;1.47;;;;;;;38.22;19.63;100141.53;1701437;82;21069;-56
2022/04/27 07:27:53;;;;;;;2.98;1.42;;;;;;;38.20;19.70;100141.14;1701724;82;21060;-58
2022/04/27 07:30:23;;;;;;;3.60;1.52;;;;;;;38.20;19.90;100141.91;1702082;82;21082;-62
2022/04/27 07:32:51;;;;;;;3.85;1.72;;;;;;;38.41;19.50;100150.89;1701792;82;21058;-56
2022/04/27 07:35:18;;;;;;;4.75;2.20;;;;;;;37.93;19.13;100148.61;1702071;82;21066;-56
2022/04/27 07:37:46;;;;;;;3.77;1.85;;;;;;;37.25;19.84;100153.88;1702168;82;21012;-64
2022/04/27 07:40:15;;;;;;;1.77;1.10;;;;;;;37.04;20.41;100159.56;1701507;82;21046;-56
2022/04/27 07:42:42;;;;;;;2.55;1.60;;;;;;;37.12;19.99;100145.70;1701672;82;21357;-61
2022/04/27 07:45:10;;;;;;;2.40;1.60;;;;;;;37.25;20.09;100149.80;1702405;82;21077;-57
2022/04/27 07:47:45;;;;;;;2.30;1.45;;;;;;;37.25;20.10;100136.79;1702404;82;20991;-62
2022/04/27 07:50:16;;;;;;;3.70;1.77;;;;;;;37.45;20.47;100146.41;1702000;82;21372;-57
2022/04/27 07:52:44;;;;;;;5.67;2.05;;;;;;;37.71;20.22;100142.09;1701931;82;21031;-56
2022/04/27 07:55:11;;;;;;;4.72;2.42;;;;;;;37.89;20.40;100146.44;1684118;84;21480;-57
2022/04/27 07:57:39;;;;;;;3.10;2.10;;;;;;;38.23;19.26;100147.20;1701663;82;20983;-65
2022/04/27 08:00:09;;;;;;;4.45;2.70;;;;;;;38.30;18.83;100138.30;1701942;82;21344;-57
2022/04/27 08:02:41;;;;;;;4.05;2.90;;;;;;;38.21;18.57;100142.11;1702020;82;21454;-58
2022/04/27 08:05:10;;;;;;;4.35;2.70;;;;;;;37.85;19.55;100138.20;1701901;82;21395;-57
2022/04/27 08:07:40;;;;;;;3.77;2.77;;;;;;;37.81;19.86;100144.17;1702206;82;21007;-56
2022/04/27 08:10:10;;;;;;;5.00;2.77;;;;;;;37.82;19.93;100151.17;1702660;82;21043;-56
2022/04/27 08:12:40;;;;;;;3.60;2.15;;;;;;;37.78;20.19;100156.38;1702315;83;20988;-58
2022/04/27 08:15:09;;;;;;;2.57;1.70;;;;;;;38.02;19.31;100153.77;1702879;82;21011;-58
2022/04/27 08:17:54;;;;;;;2.77;1.70;;;;;;;38.28;18.92;100144.71;1702309;82;21051;-57
2022/04/27 08:23:12;;;;;;;4.33;2.45;;;;;;;37.95;19.74;100157.95;1702650;82;21046;-57
2022/04/27 08:25:42;;;;;;;8.20;2.60;;;;;;;37.90;18.79;100147.41;1702615;84;21094;-57
2022/04/27 08:28:09;;;;;;;4.60;1.98;;;;;;;37.47;19.43;100153.64;1701978;82;21010;-58
2022/04/27 08:30:39;;;;;;;3.60;2.10;;;;;;;37.41;19.74;100156.46;1702476;83;21157;-63
2022/04/27 08:33:07;;;;;;;3.45;2.25;;;;;;;37.31;19.88;100152.98;1702165;82;21306;-58
2022/04/27 08:35:35;;;;;;;3.45;2.62;;;;;;;36.93;20.01;100153.34;1702813;82;21102;-57
2022/04/27 08:38:05;;;;;;;9.88;2.40;;;;;;;36.18;20.54;100165.59;1702758;82;21067;-59
2022/04/27 08:40:34;;;;;;;6.22;2.40;;;;;;;35.36;21.15;100156.23;1692155;84;21564;-57
2022/04/27 08:43:03;;;;;;;3.02;2.22;;;;;;;34.83;22.36;100158.64;1702617;84;21055;-57
2022/04/27 08:45:33;;;;;;;4.37;2.30;;;;;;;34.54;22.45;100163.88;1691765;84;21007;-58
2022/04/27 08:48:01;;;;;;;3.45;2.35;;;;;;;34.06;22.88;100163.53;1702702;82;22196;-64
2022/04/27 08:50:29;;;;;;;4.28;2.30;;;;;;;33.81;23.62;100161.41;1702062;82;22145;-63
2022/04/27 08:52:56;;;;;;;6.30;2.62;;;;;;;33.71;23.83;100150.50;1702885;82;21597;-56
2022/04/27 08:55:27;;;;;;;5.42;3.00;;;;;;;34.03;24.35;100169.05;1702928;84;22367;-57
2022/04/27 08:58:12;;;;;;;4.62;3.35;;;;;;;34.40;23.12;100168.91;1703440;84;21133;-57
2022/04/27 09:00:39;;;;;;;4.10;3.10;;;;;;;34.40;22.69;100166.20;1703019;83;22096;-57
2022/04/27 09:03:34;;;;;;;2.72;2.22;;;;;;;34.43;22.49;100166.84;1702833;84;20980;-58
2022/04/27 09:06:07;;;;;;;4.60;2.47;;;;;;;34.06;22.52;100167.58;1702273;82;22099;-59
2022/04/27 09:08:52;;;;;;;3.00;2.05;;;;;;;33.61;23.09;100166.64;1684001;84;21089;-55
2022/04/27 09:11:25;;;;;;;2.83;1.80;;;;;;;33.31;23.68;100166.64;1691980;82;21136;-58
2022/04/27 09:13:57;;;;;;;4.40;1.83;;;;;;;33.44;23.71;100162.78;1692641;83;21129;-59
2022/04/27 09:22:11;;;;;;;3.10;1.83;;;;;;;32.60;24.04;100163.69;1692794;82;21571;-57
2022/04/27 09:24:54;;;;;;;9.87;2.30;;;;;;;32.69;23.93;100168.42;1692001;82;20983;-58
2022/04/27 09:27:22;;;;;;;6.13;3.37;;;;;;;33.18;23.64;100166.61;1692549;83;20951;-57
2022/04/27 09:30:07;;;;;;;4.03;2.43;;;;;;;33.77;22.49;100159.17;1692695;82;21058;-57
2022/04/27 09:32:35;;;;;;;3.97;2.23;;;;;;;33.98;22.22;100161.19;1682031;84;21070;-58
2022/04/27 09:35:08;;;;;;;3.57;2.10;;;;;;;34.49;21.82;100158.73;1691927;83;21054;-57
2022/04/27 09:37:41;;;;;;;3.17;1.80;;;;;;;34.81;21.90;100158.19;1682474;84;21257;-57
2022/04/27 09:40:13;;;;;;;4.73;1.90;;;;;;;35.06;20.87;100156.13;1691921;83;21053;-65
2022/04/27 09:42:46;;;;;;;2.20;1.55;;;;;;;34.62;21.24;100168.91;1692865;84;21089;-58
2022/04/27 09:45:20;;;;;;;4.53;2.63;;;;;;;34.33;21.64;100164.08;1692602;83;21539;-57
2022/04/27 09:47:53;;;;;;;4.90;2.83;;;;;;;34.52;20.91;100160.75;1692703;84;21065;-64
2022/04/27 09:50:19;;;;;;;3.33;2.47;;;;;;;34.57;21.60;100168.61;1692419;83;21202;-57
2022/04/27 09:52:49;;;;;;;4.22;2.30;;;;;;;34.86;21.61;100166.64;1691985;84;21528;-57
2022/04/27 09:55:16;;;;;;;9.03;2.50;;;;;;;35.16;21.03;100170.27;1692663;84;21105;-57
2022/04/27 09:57:45;;;;;;;3.87;2.60;;;;;;;35.19;20.94;100167.64;1692004;84;21034;-57
2022/04/27 10:00:15;;;;;;;3.87;2.90;;;;;;;35.19;21.16;100169.00;1692384;82;21449;-56
2022/04/27 10:02:43;;;;;;;3.77;2.60;;;;;;;35.04;21.05;100165.19;1692633;82;21229;-58
2022/04/27 10:05:12;;;;;;;4.90;2.70;;;;;;;34.92;21.15;100172.00;1692592;84;22042;-58
2022/04/27 10:07:42;;;;;;;4.35;3.00;;;;;;;34.89;21.06;100175.40;1688309;82;21014;-58
2022/04/27 10:10:10;;;;;;;4.45;3.00;;;;;;;34.91;21.36;100168.30;1632521;85;21130;-56
2022/04/27 10:12:40;;;;;;;3.75;2.50;;;;;;;35.12;21.43;100163.44;1680903;83;20975;-65
2022/04/27 10:15:09;;;;;;;3.47;2.30;;;;;;;35.47;20.95;100170.81;1680701;83;21540;-58
2022/04/27 10:17:39;;;;;;;3.65;1.90;;;;;;;35.62;20.07;100170.02;1680199;83;20971;-57
2022/04/27 10:20:29;;;;;;;2.27;1.70;;;;;;;35.61;19.87;100169.78;1678004;85;21006;-57
2022/04/27 10:23:34;;;;;;;2.47;1.52;;;;;;;35.86;19.55;100162.77;1679893;85;21018;-60
2022/04/27 10:26:10;;;;;;;2.37;1.45;;;;;;;35.92;19.15;100164.84;1680767;85;21611;-65
2022/04/27 10:28:51;;;;;;;2.43;1.70;;;;;;;35.98;19.12;100168.05;1665924;83;39198;-56
2022/04/27 10:31:47;;;;;;;2.55;1.50;;;;;;;35.92;19.08;100168.91;1680851;85;21002;-57
2022/04/27 10:34:21;;;;;;;3.08;1.32;;;;;;;35.87;19.70;100170.53;1681041;83;21451;-58
2022/04/27 10:36:51;;;;;;;1.90;1.30;;;;;;;35.71;19.45;100186.87;1655996;85;21014;-57
2022/04/27 10:39:21;;;;;;;2.58;1.80;;;;;;;35.56;19.52;100170.85;1681296;85;21059;-56
2022/04/27 10:42:06;;;;;;;3.40;2.00;;;;;;;35.70;19.59;100176.38;1680416;83;20983;-57
2022/04/27 10:44:55;;;;;;;2.58;1.72;;;;;;;35.73;19.58;100172.97;1681084;85;21513;-57
2022/04/27 10:47:24;;;;;;;3.30;2.10;;;;;;;36.03;19.29;100168.59;1680605;85;21006;-56
2022/04/27 10:50:14;;;;;;;2.50;1.80;;;;;;;36.14;19.05;100168.81;1680912;83;21256;-56
2022/04/27 10:52:51;;;;;;;4.05;2.00;;;;;;;36.12;19.09;100164.88;1680476;83;20999;-63
2022/04/27 10:55:38;;;;;;;2.37;1.80;;;;;;;35.98;19.03;100164.78;1680742;83;21568;-57
2022/04/27 10:58:24;;;;;;;2.33;1.52;;;;;;;36.05;18.95;100165.51;1680941;85;21054;-58
2022/04/27 11:01:17;;;;;;;3.12;2.00;;;;;;;36.22;18.90;100171.09;1680612;83;21455;-57
2022/04/27 11:03:45;;;;;;;3.12;2.12;;;;;;;36.29;18.97;100171.20;1680580;83;21022;-64
2022/04/27 11:06:13;;;;;;;3.27;1.85;;;;;;;36.23;18.97;100163.16;1680596;85;21485;-58
2022/04/27 11:09:19;;;;;;;3.33;2.12;;;;;;;36.21;18.79;100165.42;1680938;83;20943;-55
2022/04/27 11:11:55;;;;;;;5.50;2.20;;;;;;;35.90;18.94;100169.83;1684249;84;21474;-58
2022/04/27 11:14:34;;;;;;;3.12;2.00;;;;;;;35.85;19.28;100165.27;1680879;85;21126;-58
2022/04/27 11:17:00;;;;;;;3.47;2.05;;;;;;;35.71;18.79;100172.52;1680141;85;21050;-66
2022/04/27 11:19:37;;;;;;;2.95;1.98;;;;;;;35.61;19.18;100171.71;1680859;83;22016;-58
2022/04/27 11:22:14;;;;;;;3.75;1.75;;;;;;;35.37;19.54;100168.64;1680994;83;21241;-59
2022/04/27 11:24:45;;;;;;;3.52;2.58;;;;;;;35.62;19.52;100171.95;1680235;85;20963;-60
2022/04/27 11:27:13;;;;;;;2.95;2.10;;;;;;;35.81;19.60;100170.62;1681201;83;20982;-56
2022/04/27 11:29:42;;;;;;;2.72;2.10;;;;;;;36.01;18.91;100166.80;1678548;85;21060;-58
2022/04/27 11:32:10;;;;;;;3.75;2.30;;;;;;;35.94;18.64;100161.77;1681418;83;21160;-57
2022/04/27 11:34:39;;;;;;;2.87;1.90;;;;;;;35.69;18.81;100165.33;1680518;83;21022;-61
2022/04/27 11:37:15;;;;;;;2.83;2.12;;;;;;;35.70;18.20;100161.47;1681214;85;21035;-57
2022/04/27 11:39:43;;;;;;;3.10;2.00;;;;;;;35.56;18.58;100164.07;1681642;83;21039;-55
2022/04/27 11:42:12;;;;;;;3.85;2.40;;;;;;;35.51;18.98;100169.78;1681625;85;21330;-58
2022/04/27 11:44:40;;;;;;;4.50;3.27;;;;;;;35.74;19.07;100169.11;1680476;83;21054;-63
2022/04/27 11:47:29;;;;;;;4.25;3.80;;;;;;;35.96;19.40;100164.92;1681277;85;21559;-56
2022/04/27 11:49:57;;;;;;;7.20;3.80;;;;;;;35.89;19.17;100167.48;1681605;83;20909;-55
2022/04/27 11:52:26;;;;;;;6.73;3.63;;;;;;;35.73;19.25;100165.61;1680791;85;21062;-63
2022/04/27 11:55:01;;;;;;;6.55;3.37;;;;;;;35.48;19.05;100160.96;1681143;83;21415;-59
2022/04/27 11:57:29;;;;;;;5.37;3.40;;;;;;;34.80;19.69;100168.81;1657530;85;21063;-57
2022/04/27 11:59:57;;;;;;;5.40;3.10;;;;;;;34.61;20.12;100168.70;1681493;85;21134;-56
2022/04/27 12:02:26;;;;;;;5.67;2.72;;;;;;;34.86;20.16;100166.64;1680384;83;20948;-56
2022/04/27 12:04:59;;;;;;;3.92;2.70;;;;;;;35.00;20.12;100171.63;1681584;83;21325;-57
2022/04/27 12:07:37;;;;;;;5.33;2.62;;;;;;;35.14;19.90;100157.66;1681066;83;21536;-56